Time;durP1;ratioP1;P1;durP2;ratioP2;P2;SDS_P1;SDS_P2;PMS_P1;PMS_P2;Temp;Humidity;BMP_temperature;BMP_pressure;BME280_temperature;BME280_humidity;BME280_pressure;Samples;Min_cycle;Max_cycle;Signal;HPM_P1;HPM_P2
2021/12/28 00:00:27;;;;;;;35.25;21.48;;;;;;;;;;5091942;28;20051;-80
2021/12/28 00:02:54;;;;;;;36.30;22.45;;;;;;;;;;5092057;28;20040;-79
2021/12/28 00:05:21;;;;;;;33.50;22.30;;;;;;;;;;5093274;28;20044;-79
2021/12/28 00:07:47;;;;;;;32.72;21.42;;;;;;;;;;5093124;28;20477;-79
2021/12/28 00:10:14;;;;;;;37.58;21.35;;;;;;;;;;5091879;28;20392;-79
2021/12/28 00:12:41;;;;;;;35.83;22.98;;;;;;;;;;5092185;28;20054;-80
2021/12/28 00:18:00;;;;;;;37.10;22.10;;;;;;;;;;5092914;28;20097;-80
2021/12/28 00:20:27;;;;;;;37.47;22.45;;;;;;;;;;5091885;28;20126;-80
2021/12/28 00:22:53;;;;;;;35.67;22.77;;;;;;;;;;5092582;28;20477;-79
2021/12/28 00:25:19;;;;;;;35.15;21.95;;;;;;;;;;5093172;28;20036;-80
2021/12/28 00:27:45;;;;;;;36.80;21.88;;;;;;;;;;5093054;28;20426;-80
2021/12/28 00:30:12;;;;;;;42.40;23.75;;;;;;;;;;5105831;28;20200;-80
2021/12/28 00:32:38;;;;;;;36.63;23.48;;;;;;;;;;5113108;28;20066;-79
2021/12/28 00:35:05;;;;;;;40.65;23.13;;;;;;;;;;5113065;28;20043;-81
2021/12/28 00:37:31;;;;;;;41.58;25.60;;;;;;;;;;5095218;28;20043;-79
2021/12/28 00:39:57;;;;;;;48.63;24.70;;;;;;;;;;5094898;28;20126;-79
2021/12/28 00:42:23;;;;;;;45.95;26.05;;;;;;;;;;5113180;28;20047;-79
2021/12/28 00:44:49;;;;;;;45.70;25.58;;;;;;;;;;5113218;28;20075;-80
2021/12/28 00:47:16;;;;;;;48.90;27.25;;;;;;;;;;5112898;28;20110;-79
2021/12/28 00:49:42;;;;;;;49.67;28.17;;;;;;;;;;5113084;28;20043;-79
2021/12/28 00:52:08;;;;;;;46.30;26.40;;;;;;;;;;5112957;28;20123;-79
2021/12/28 00:54:34;;;;;;;46.60;28.15;;;;;;;;;;5113185;28;20047;-78
2021/12/28 00:57:01;;;;;;;47.97;28.45;;;;;;;;;;5112995;28;20043;-79
2021/12/28 00:59:28;;;;;;;58.85;31.10;;;;;;;;;;5094745;28;20502;-80
2021/12/28 01:01:54;;;;;;;53.38;30.00;;;;;;;;;;5094415;28;20042;-78
2021/12/28 01:04:20;;;;;;;61.83;32.30;;;;;;;;;;5112874;28;20384;-80
2021/12/28 01:06:46;;;;;;;59.80;32.42;;;;;;;;;;5112844;28;20047;-81
2021/12/28 01:09:12;;;;;;;57.67;30.48;;;;;;;;;;5112954;28;20046;-80
2021/12/28 01:11:39;;;;;;;62.33;30.95;;;;;;;;;;5112925;28;20136;-79
2021/12/28 01:14:05;;;;;;;64.30;33.17;;;;;;;;;;5112559;28;20040;-79
2021/12/28 01:16:31;;;;;;;59.55;31.77;;;;;;;;;;5106043;28;20040;-80
2021/12/28 01:18:57;;;;;;;62.92;31.58;;;;;;;;;;5112431;28;20032;-79
2021/12/28 01:21:23;;;;;;;67.35;33.08;;;;;;;;;;5101121;28;20043;-81
2021/12/28 01:23:50;;;;;;;67.95;32.20;;;;;;;;;;5126792;28;20104;-82
2021/12/28 01:26:16;;;;;;;70.97;32.80;;;;;;;;;;5094846;28;20051;-78
2021/12/28 01:28:42;;;;;;;70.60;33.47;;;;;;;;;;5112410;28;20048;-80
2021/12/28 01:31:08;;;;;;;76.20;33.47;;;;;;;;;;5112375;28;20047;-80
2021/12/28 01:33:34;;;;;;;71.97;34.78;;;;;;;;;;5095019;28;20048;-79
2021/12/28 01:36:00;;;;;;;67.50;32.63;;;;;;;;;;5115931;28;20501;-79
2021/12/28 01:38:26;;;;;;;82.95;35.83;;;;;;;;;;5115881;27;20171;-79
2021/12/28 01:40:53;;;;;;;76.22;34.85;;;;;;;;;;5118470;27;20395;-81
2021/12/28 01:43:24;;;;;;;90.25;35.92;;;;;;;;;;5120353;27;20042;-81
2021/12/28 01:45:54;;;;;;;91.75;37.58;;;;;;;;;;5116607;27;20040;-79
2021/12/28 01:48:23;;;;;;;107.72;38.97;;;;;;;;;;5098553;28;20036;-79
2021/12/28 01:50:51;;;;;;;103.60;39.83;;;;;;;;;;5116458;27;20039;-78
2021/12/28 01:53:17;;;;;;;113.82;40.42;;;;;;;;;;5117294;27;20036;-79
2021/12/28 01:55:45;;;;;;;112.95;41.80;;;;;;;;;;5098021;28;20471;-80
2021/12/28 01:58:11;;;;;;;113.68;40.10;;;;;;;;;;5098422;28;20078;-80
2021/12/28 02:00:38;;;;;;;111.18;39.08;;;;;;;;;;5115900;28;20046;-79
2021/12/28 02:03:14;;;;;;;110.88;41.67;;;;;;;;;;5130993;27;20114;-79
2021/12/28 02:05:40;;;;;;;129.68;42.15;;;;;;;;;;5118468;27;20035;-80
2021/12/28 02:08:07;;;;;;;146.10;44.38;;;;;;;;;;5122522;27;20078;-79
2021/12/28 02:10:34;;;;;;;168.48;47.25;;;;;;;;;;5122561;27;20042;-79
2021/12/28 02:13:00;;;;;;;172.57;46.35;;;;;;;;;;5136490;27;20126;-79
2021/12/28 02:15:26;;;;;;;157.57;49.03;;;;;;;;;;5095781;27;20047;-80
2021/12/28 02:17:52;;;;;;;181.48;49.67;;;;;;;;;;5130522;27;20110;-79
2021/12/28 02:20:20;;;;;;;182.05;48.03;;;;;;;;;;5112279;28;20040;-80
2021/12/28 02:22:46;;;;;;;170.15;47.72;;;;;;;;;;5130887;27;20039;-81
2021/12/28 02:25:13;;;;;;;185.00;48.90;;;;;;;;;;5134386;27;20074;-79
2021/12/28 02:27:40;;;;;;;212.27;51.25;;;;;;;;;;5136313;27;20049;-79
2021/12/28 02:30:07;;;;;;;200.20;50.65;;;;;;;;;;5096834;28;20090;-81
2021/12/28 02:32:34;;;;;;;190.02;50.53;;;;;;;;;;5108551;28;20051;-80
2021/12/28 02:35:00;;;;;;;167.38;47.05;;;;;;;;;;5114116;28;20131;-79
2021/12/28 02:37:27;;;;;;;176.45;49.60;;;;;;;;;;5113448;28;20472;-81
2021/12/28 02:39:53;;;;;;;215.75;51.95;;;;;;;;;;5114303;28;20495;-80
2021/12/28 02:42:20;;;;;;;193.70;49.28;;;;;;;;;;5113552;28;20071;-80
2021/12/28 02:44:55;;;;;;;178.48;47.22;;;;;;;;;;5107194;28;20470;-78
2021/12/28 02:47:21;;;;;;;154.93;45.20;;;;;;;;;;5096636;28;20208;-79
2021/12/28 02:49:48;;;;;;;154.52;44.70;;;;;;;;;;5115105;28;20048;-80
2021/12/28 02:52:14;;;;;;;156.05;46.78;;;;;;;;;;5113510;28;20058;-81
2021/12/28 02:54:41;;;;;;;169.40;49.05;;;;;;;;;;5114252;28;20390;-80
2021/12/28 02:57:07;;;;;;;158.95;45.20;;;;;;;;;;5095493;28;20401;-80
2021/12/28 02:59:33;;;;;;;173.40;45.88;;;;;;;;;;5093344;28;20044;-79
2021/12/28 03:01:59;;;;;;;159.00;44.28;;;;;;;;;;5107935;28;20043;-79
2021/12/28 03:04:27;;;;;;;167.45;46.03;;;;;;;;;;5113743;28;20123;-79
2021/12/28 03:06:53;;;;;;;159.38;47.50;;;;;;;;;;5096807;28;20051;-81
2021/12/28 03:09:21;;;;;;;141.68;45.63;;;;;;;;;;5097562;28;20048;-81
2021/12/28 03:11:47;;;;;;;149.82;45.00;;;;;;;;;;5094252;28;20040;-79
2021/12/28 03:14:13;;;;;;;156.70;45.63;;;;;;;;;;5094257;28;20381;-79
2021/12/28 03:16:39;;;;;;;172.98;45.75;;;;;;;;;;5110540;28;20071;-80
2021/12/28 03:19:05;;;;;;;149.43;44.33;;;;;;;;;;5093911;28;20115;-80
2021/12/28 03:21:35;;;;;;;144.57;44.40;;;;;;;;;;5098325;28;20036;-80
2021/12/28 03:24:02;;;;;;;161.52;45.55;;;;;;;;;;5093010;28;20085;-80
2021/12/28 03:26:28;;;;;;;154.77;46.85;;;;;;;;;;5094246;28;20055;-81
2021/12/28 03:28:54;;;;;;;181.68;48.30;;;;;;;;;;5094063;28;20068;-81
2021/12/28 03:31:21;;;;;;;183.57;49.20;;;;;;;;;;5100515;28;20416;-79
2021/12/28 03:33:49;;;;;;;197.75;50.55;;;;;;;;;;5090867;28;20043;-80
2021/12/28 03:36:16;;;;;;;181.98;49.67;;;;;;;;;;5092782;28;20040;-80
2021/12/28 03:38:42;;;;;;;179.95;48.63;;;;;;;;;;5093925;28;20048;-80
2021/12/28 03:41:10;;;;;;;229.13;52.00;;;;;;;;;;5092758;28;20169;-80
2021/12/28 03:43:36;;;;;;;306.63;55.10;;;;;;;;;;5092366;28;20495;-80
2021/12/28 03:46:02;;;;;;;372.98;56.17;;;;;;;;;;5097790;28;20494;-81
2021/12/28 03:48:28;;;;;;;462.67;62.50;;;;;;;;;;5094588;28;20040;-80
2021/12/28 03:50:55;;;;;;;443.98;61.13;;;;;;;;;;5094503;28;20036;-79
2021/12/28 03:53:21;;;;;;;472.75;60.05;;;;;;;;;;5092000;28;20062;-80
2021/12/28 03:55:47;;;;;;;646.30;67.18;;;;;;;;;;5108419;28;20075;-80
2021/12/28 03:58:13;;;;;;;677.33;68.32;;;;;;;;;;5092158;28;20105;-81
2021/12/28 04:00:41;;;;;;;546.63;58.85;;;;;;;;;;5091918;28;20050;-81
2021/12/28 04:03:08;;;;;;;835.58;72.32;;;;;;;;;;5098495;28;20123;-81
2021/12/28 04:05:34;;;;;;;595.28;61.00;;;;;;;;;;5092347;28;20050;-80
2021/12/28 04:08:00;;;;;;;750.00;68.63;;;;;;;;;;5110157;28;20043;-80
2021/12/28 04:10:33;;;;;;;724.05;65.28;;;;;;;;;;5112213;28;20048;-80
2021/12/28 04:12:59;;;;;;;763.70;64.55;;;;;;;;;;5095599;28;20097;-80
2021/12/28 04:15:25;;;;;;;652.05;62.00;;;;;;;;;;5092847;28;20127;-81
2021/12/28 04:17:51;;;;;;;591.53;56.88;;;;;;;;;;5092636;28;20047;-83
2021/12/28 04:20:27;;;;;;;602.40;57.75;;;;;;;;;;5093121;28;20036;-80
2021/12/28 04:22:53;;;;;;;633.75;58.13;;;;;;;;;;5098207;28;20043;-82
2021/12/28 04:25:19;;;;;;;520.47;51.40;;;;;;;;;;5092606;28;20051;-81
2021/12/28 04:27:45;;;;;;;546.00;52.90;;;;;;;;;;5092640;28;20035;-80
2021/12/28 04:30:12;;;;;;;679.97;59.65;;;;;;;;;;5103392;28;20074;-80
2021/12/28 04:32:39;;;;;;;488.77;50.67;;;;;;;;;;5113297;28;20055;-80
2021/12/28 04:35:05;;;;;;;615.97;56.58;;;;;;;;;;5105274;27;20114;-79
2021/12/28 04:37:31;;;;;;;663.03;58.85;;;;;;;;;;5096588;28;20045;-81
2021/12/28 04:39:58;;;;;;;538.33;52.75;;;;;;;;;;5114559;27;20131;-82
2021/12/28 04:42:29;;;;;;;622.17;55.10;;;;;;;;;;5112969;28;20069;-79
2021/12/28 04:44:55;;;;;;;583.63;54.00;;;;;;;;;;5117037;27;20035;-82
2021/12/28 04:47:21;;;;;;;761.08;62.58;;;;;;;;;;5113304;28;20044;-78
2021/12/28 04:49:48;;;;;;;614.20;55.65;;;;;;;;;;5118158;28;20122;-78
2021/12/28 04:52:14;;;;;;;648.67;56.85;;;;;;;;;;5114805;28;20042;-80
2021/12/28 04:54:40;;;;;;;532.92;50.30;;;;;;;;;;5133342;28;20043;-80
2021/12/28 04:57:07;;;;;;;601.15;55.38;;;;;;;;;;5133310;28;20043;-81
2021/12/28 04:59:33;;;;;;;548.72;52.45;;;;;;;;;;5115234;28;20130;-82
2021/12/28 05:01:59;;;;;;;530.38;47.20;;;;;;;;;;5133622;28;20039;-80
2021/12/28 05:04:25;;;;;;;635.72;55.08;;;;;;;;;;5115334;28;20046;-79
2021/12/28 05:06:55;;;;;;;550.63;52.85;;;;;;;;;;5115289;28;20089;-80
2021/12/28 05:09:21;;;;;;;598.83;55.53;;;;;;;;;;5117888;27;20046;-79
2021/12/28 05:11:48;;;;;;;697.90;54.38;;;;;;;;;;5137399;27;20585;-80
2021/12/28 05:14:16;;;;;;;725.10;56.58;;;;;;;;;;5119358;27;20046;-81
2021/12/28 05:16:42;;;;;;;794.90;55.95;;;;;;;;;;5137652;27;20125;-79
2021/12/28 05:19:09;;;;;;;709.10;55.10;;;;;;;;;;5119072;27;20388;-79
2021/12/28 05:21:36;;;;;;;619.92;53.47;;;;;;;;;;5119160;27;20092;-80
2021/12/28 05:24:02;;;;;;;633.33;51.40;;;;;;;;;;5137187;27;20035;-79
2021/12/28 05:26:28;;;;;;;716.97;54.75;;;;;;;;;;5118753;27;20045;-81
2021/12/28 05:28:55;;;;;;;714.15;55.03;;;;;;;;;;5101592;27;20440;-78
2021/12/28 05:31:21;;;;;;;767.28;53.40;;;;;;;;;;5123564;27;20108;-79
2021/12/28 05:33:47;;;;;;;822.05;54.58;;;;;;;;;;5128038;27;20064;-81
2021/12/28 05:36:14;;;;;;;775.97;53.38;;;;;;;;;;5135891;27;20122;-81
2021/12/28 05:38:40;;;;;;;782.72;52.67;;;;;;;;;;5135668;27;20103;-79
2021/12/28 05:41:06;;;;;;;763.53;53.25;;;;;;;;;;5136754;27;20043;-82
2021/12/28 05:43:32;;;;;;;570.75;48.42;;;;;;;;;;5136266;27;20376;-81
2021/12/28 05:45:58;;;;;;;360.55;43.55;;;;;;;;;;5117999;27;20036;-80
2021/12/28 05:48:24;;;;;;;332.13;44.45;;;;;;;;;;5118453;27;20047;-79
2021/12/28 05:50:51;;;;;;;267.25;41.47;;;;;;;;;;5136774;27;20062;-80
2021/12/28 05:53:17;;;;;;;370.75;42.28;;;;;;;;;;5118512;27;20047;-79
2021/12/28 05:55:44;;;;;;;469.33;47.85;;;;;;;;;;5111545;28;20040;-79
2021/12/28 05:58:10;;;;;;;658.65;50.78;;;;;;;;;;5097676;28;20130;-79
2021/12/28 06:00:36;;;;;;;639.85;50.42;;;;;;;;;;5097861;28;20510;-81
2021/12/28 06:03:03;;;;;;;585.05;45.78;;;;;;;;;;5097912;28;20044;-80
2021/12/28 06:05:29;;;;;;;447.70;43.65;;;;;;;;;;5115978;28;20043;-79
2021/12/28 06:07:55;;;;;;;210.18;39.17;;;;;;;;;;5097705;28;20092;-79
2021/12/28 06:10:21;;;;;;;194.82;40.95;;;;;;;;;;5081034;28;20376;-78
2021/12/28 06:12:47;;;;;;;193.63;40.00;;;;;;;;;;5115920;28;20116;-81
2021/12/28 06:15:13;;;;;;;172.43;39.90;;;;;;;;;;5115806;28;20039;-80
2021/12/28 06:17:39;;;;;;;167.77;39.40;;;;;;;;;;5097630;28;20500;-80
2021/12/28 06:20:06;;;;;;;166.98;39.63;;;;;;;;;;5114857;28;20185;-81
2021/12/28 06:22:33;;;;;;;198.18;39.10;;;;;;;;;;5097542;28;20055;-80
2021/12/28 06:24:59;;;;;;;216.18;40.58;;;;;;;;;;5115419;28;20099;-81
2021/12/28 06:27:25;;;;;;;195.73;40.38;;;;;;;;;;5097849;28;20373;-80
2021/12/28 06:29:51;;;;;;;148.60;36.78;;;;;;;;;;5097284;28;20530;-81
2021/12/28 06:32:17;;;;;;;157.90;38.70;;;;;;;;;;5097430;28;20048;-80
2021/12/28 06:34:43;;;;;;;145.32;36.97;;;;;;;;;;5115457;28;20092;-79
2021/12/28 06:37:10;;;;;;;129.93;36.42;;;;;;;;;;5115317;28;20047;-80
2021/12/28 06:39:36;;;;;;;114.13;34.33;;;;;;;;;;5079925;28;20529;-79
2021/12/28 06:42:02;;;;;;;97.53;31.38;;;;;;;;;;5090997;27;20075;-79
2021/12/28 06:44:28;;;;;;;95.82;33.65;;;;;;;;;;5117586;27;20043;-80
2021/12/28 06:46:54;;;;;;;88.13;31.50;;;;;;;;;;5100370;27;20045;-79
2021/12/28 06:49:20;;;;;;;84.00;30.30;;;;;;;;;;5135635;27;20142;-80
2021/12/28 06:51:46;;;;;;;86.70;30.23;;;;;;;;;;5135264;27;20039;-79
2021/12/28 06:54:13;;;;;;;87.95;30.08;;;;;;;;;;5100566;27;20043;-80
2021/12/28 06:56:39;;;;;;;82.55;29.52;;;;;;;;;;5135863;27;20487;-80
2021/12/28 06:59:06;;;;;;;80.35;28.35;;;;;;;;;;5135493;27;20035;-80
2021/12/28 07:01:32;;;;;;;79.68;28.80;;;;;;;;;;5117264;27;20479;-80
2021/12/28 07:03:58;;;;;;;70.35;27.30;;;;;;;;;;5116906;27;20039;-80
2021/12/28 07:06:26;;;;;;;62.65;26.02;;;;;;;;;;5116955;27;20475;-80
2021/12/28 07:08:52;;;;;;;57.65;25.48;;;;;;;;;;5135243;27;20045;-80
2021/12/28 07:11:19;;;;;;;61.83;25.27;;;;;;;;;;5117160;27;20034;-81
2021/12/28 07:13:45;;;;;;;53.50;25.13;;;;;;;;;;5135381;27;20039;-81
2021/12/28 07:16:12;;;;;;;62.17;24.88;;;;;;;;;;5135147;27;20110;-80
2021/12/28 07:18:38;;;;;;;55.65;23.75;;;;;;;;;;5116928;27;20043;-82
2021/12/28 07:21:04;;;;;;;54.30;23.35;;;;;;;;;;5134899;27;20126;-80
2021/12/28 07:23:30;;;;;;;54.95;24.40;;;;;;;;;;5135313;27;20039;-80
2021/12/28 07:25:56;;;;;;;59.15;23.65;;;;;;;;;;5116730;27;20426;-80
2021/12/28 07:28:24;;;;;;;47.95;22.38;;;;;;;;;;5134984;27;20043;-81
2021/12/28 07:30:50;;;;;;;52.70;21.60;;;;;;;;;;5134663;27;20518;-79
2021/12/28 07:33:16;;;;;;;49.40;20.88;;;;;;;;;;5118470;27;20044;-82
2021/12/28 07:35:43;;;;;;;44.28;20.75;;;;;;;;;;5114043;28;20062;-79
2021/12/28 07:38:09;;;;;;;44.50;18.33;;;;;;;;;;5095772;28;20044;-79
2021/12/28 07:40:35;;;;;;;45.67;20.10;;;;;;;;;;5079263;28;20046;-81
2021/12/28 07:43:01;;;;;;;48.28;19.23;;;;;;;;;;5095925;28;20173;-80
2021/12/28 07:45:28;;;;;;;42.85;18.38;;;;;;;;;;5096088;28;20051;-79
2021/12/28 07:47:54;;;;;;;42.15;18.40;;;;;;;;;;5113709;28;20499;-80
2021/12/28 07:50:20;;;;;;;35.63;16.42;;;;;;;;;;5114117;28;20039;-82
2021/12/28 07:52:52;;;;;;;39.30;15.85;;;;;;;;;;5130469;27;1287705;-82
2021/12/28 07:55:18;;;;;;;38.47;16.73;;;;;;;;;;5151615;27;20042;-81
2021/12/28 07:57:45;;;;;;;38.40;16.10;;;;;;;;;;5132609;27;20039;-80
2021/12/28 08:00:13;;;;;;;35.28;14.52;;;;;;;;;;5151293;27;20114;-80
2021/12/28 08:02:39;;;;;;;34.20;15.45;;;;;;;;;;5115740;27;20050;-80
2021/12/28 08:05:06;;;;;;;37.75;14.77;;;;;;;;;;5151393;27;20053;-79
2021/12/28 08:07:32;;;;;;;36.80;13.82;;;;;;;;;;5151511;27;20179;-82
2021/12/28 08:09:58;;;;;;;35.95;15.13;;;;;;;;;;5151273;27;20050;-80
2021/12/28 08:12:24;;;;;;;35.50;14.27;;;;;;;;;;5132733;27;20130;-80
2021/12/28 08:14:50;;;;;;;42.30;14.35;;;;;;;;;;5115264;27;20039;-80
2021/12/28 08:17:16;;;;;;;32.03;13.85;;;;;;;;;;5115837;27;20113;-80
2021/12/28 08:19:42;;;;;;;33.50;13.25;;;;;;;;;;5151145;27;20051;-80
2021/12/28 08:22:08;;;;;;;38.05;13.70;;;;;;;;;;5151187;27;20043;-80
2021/12/28 08:24:35;;;;;;;29.67;13.30;;;;;;;;;;5132768;27;20051;-81
2021/12/28 08:27:01;;;;;;;41.53;13.35;;;;;;;;;;5151054;27;20440;-79
2021/12/28 08:29:27;;;;;;;29.15;13.02;;;;;;;;;;5150977;27;20039;-80
2021/12/28 08:31:54;;;;;;;29.92;11.68;;;;;;;;;;5150861;27;20361;-81
2021/12/28 08:34:20;;;;;;;32.03;12.80;;;;;;;;;;5151039;27;20542;-82
2021/12/28 08:36:46;;;;;;;33.42;12.80;;;;;;;;;;5150575;27;20035;-80
2021/12/28 08:39:12;;;;;;;38.78;12.68;;;;;;;;;;5132543;27;20137;-80
2021/12/28 08:41:38;;;;;;;40.35;13.75;;;;;;;;;;5150541;27;20050;-80
2021/12/28 08:44:04;;;;;;;31.15;11.95;;;;;;;;;;5132095;27;20039;-81
2021/12/28 08:46:30;;;;;;;36.92;12.52;;;;;;;;;;5132658;27;20039;-81
2021/12/28 08:48:57;;;;;;;32.65;11.35;;;;;;;;;;5150888;27;20051;-81
2021/12/28 08:51:23;;;;;;;30.95;11.77;;;;;;;;;;5150517;27;20495;-81
2021/12/28 08:53:49;;;;;;;34.53;11.75;;;;;;;;;;5150625;27;20099;-80
2021/12/28 08:56:15;;;;;;;29.63;11.50;;;;;;;;;;5132234;27;20349;-81
2021/12/28 08:58:41;;;;;;;31.85;11.77;;;;;;;;;;5150349;27;20046;-80
2021/12/28 09:01:07;;;;;;;32.53;11.43;;;;;;;;;;5150608;27;20095;-80
2021/12/28 09:03:34;;;;;;;31.42;11.13;;;;;;;;;;5122035;27;20047;-82
2021/12/28 09:06:03;;;;;;;35.42;11.50;;;;;;;;;;5136233;27;20480;-81
2021/12/28 09:08:29;;;;;;;33.30;10.93;;;;;;;;;;5101130;27;20476;-81
2021/12/28 09:10:55;;;;;;;32.45;10.68;;;;;;;;;;5100881;27;20031;-79
2021/12/28 09:13:21;;;;;;;30.60;10.48;;;;;;;;;;5136073;27;20125;-80
2021/12/28 09:15:47;;;;;;;31.63;11.23;;;;;;;;;;5136164;27;20066;-79
2021/12/28 09:18:14;;;;;;;27.90;10.38;;;;;;;;;;5136307;27;20125;-81
2021/12/28 09:20:40;;;;;;;33.75;11.45;;;;;;;;;;5117610;27;20039;-79
2021/12/28 09:23:07;;;;;;;33.35;10.88;;;;;;;;;;5120842;27;20483;-80
2021/12/28 09:25:33;;;;;;;33.67;12.38;;;;;;;;;;5137669;27;20388;-79
2021/12/28 09:28:00;;;;;;;23.90;10.00;;;;;;;;;;5096968;28;20047;-84
2021/12/28 09:30:26;;;;;;;32.22;10.80;;;;;;;;;;5097250;28;20048;-81
2021/12/28 09:32:53;;;;;;;29.83;10.32;;;;;;;;;;5133209;27;20051;-82
2021/12/28 09:35:19;;;;;;;30.83;10.32;;;;;;;;;;5117868;27;20047;-81
2021/12/28 09:37:46;;;;;;;32.78;10.27;;;;;;;;;;5097420;28;20051;-81
2021/12/28 09:40:12;;;;;;;30.17;9.55;;;;;;;;;;5115459;28;20091;-82
2021/12/28 09:42:39;;;;;;;29.77;9.05;;;;;;;;;;5113563;27;20035;-83
2021/12/28 09:45:06;;;;;;;29.05;9.55;;;;;;;;;;5135945;27;20186;-82
2021/12/28 09:47:33;;;;;;;27.13;9.68;;;;;;;;;;5136739;27;20043;-79
2021/12/28 09:49:59;;;;;;;24.85;8.18;;;;;;;;;;5135576;27;20043;-81
2021/12/28 09:52:25;;;;;;;28.35;9.52;;;;;;;;;;5128145;27;20058;-79
2021/12/28 09:54:51;;;;;;;35.95;9.43;;;;;;;;;;5135339;27;20074;-80
2021/12/28 09:57:18;;;;;;;29.73;8.68;;;;;;;;;;5133374;27;20119;-80
2021/12/28 09:59:45;;;;;;;29.55;8.98;;;;;;;;;;5134182;27;20100;-80
2021/12/28 10:02:12;;;;;;;26.95;8.90;;;;;;;;;;5134555;27;20035;-80
2021/12/28 10:04:51;;;;;;;27.48;9.18;;;;;;;;;;5117215;27;20487;-81
2021/12/28 10:07:19;;;;;;;35.95;8.68;;;;;;;;;;5133349;27;20399;-80
2021/12/28 10:09:45;;;;;;;28.13;8.57;;;;;;;;;;5134292;27;20043;-81
2021/12/28 10:12:11;;;;;;;30.85;8.30;;;;;;;;;;5118178;27;20044;-82
2021/12/28 10:14:38;;;;;;;26.77;8.05;;;;;;;;;;5117007;27;20071;-79
2021/12/28 10:17:05;;;;;;;32.50;8.18;;;;;;;;;;5113377;28;20112;-79
2021/12/28 10:19:34;;;;;;;31.02;8.35;;;;;;;;;;5114816;27;20096;-80
2021/12/28 10:22:19;;;;;;;30.88;8.77;;;;;;;;;;5113265;28;20044;-79
2021/12/28 10:24:45;;;;;;;21.33;8.20;;;;;;;;;;5126648;27;20062;-78
2021/12/28 10:27:13;;;;;;;28.48;7.78;;;;;;;;;;5133955;27;20061;-81
2021/12/28 10:29:39;;;;;;;22.23;8.10;;;;;;;;;;5122418;27;20040;-80
2021/12/28 10:32:24;;;;;;;26.20;8.13;;;;;;;;;;5116676;27;20044;-80
2021/12/28 10:34:52;;;;;;;21.50;7.40;;;;;;;;;;5114357;27;20048;-79
2021/12/28 10:37:19;;;;;;;23.67;7.65;;;;;;;;;;5113302;28;20051;-78
2021/12/28 10:39:51;;;;;;;25.85;8.27;;;;;;;;;;5122545;27;20046;-81
2021/12/28 10:42:35;;;;;;;24.98;8.57;;;;;;;;;;5132743;27;20384;-81
2021/12/28 10:45:01;;;;;;;25.65;9.13;;;;;;;;;;5134399;27;20129;-81
2021/12/28 10:47:28;;;;;;;25.55;8.27;;;;;;;;;;5131225;27;20472;-78
2021/12/28 10:49:55;;;;;;;29.30;8.80;;;;;;;;;;5119801;27;20189;-81
2021/12/28 10:52:22;;;;;;;21.17;8.52;;;;;;;;;;5096731;27;20442;-79
2021/12/28 10:54:49;;;;;;;27.77;8.80;;;;;;;;;;5112715;28;20055;-80
2021/12/28 10:57:15;;;;;;;24.92;8.35;;;;;;;;;;5113289;27;20051;-79
2021/12/28 10:59:41;;;;;;;26.00;9.00;;;;;;;;;;5121027;27;20067;-79
2021/12/28 11:02:07;;;;;;;22.30;8.20;;;;;;;;;;5113833;28;20039;-78
2021/12/28 11:04:34;;;;;;;26.48;9.43;;;;;;;;;;5112650;28;20083;-77
2021/12/28 11:07:03;;;;;;;29.02;9.13;;;;;;;;;;5113622;27;20366;-77
2021/12/28 11:09:29;;;;;;;24.90;7.75;;;;;;;;;;5113419;28;20086;-77
2021/12/28 11:11:56;;;;;;;22.98;7.45;;;;;;;;;;5113605;27;20055;-79
2021/12/28 11:14:24;;;;;;;26.80;7.72;;;;;;;;;;5113222;28;20040;-80
2021/12/28 11:16:53;;;;;;;21.00;7.75;;;;;;;;;;5113790;27;20082;-80
2021/12/28 11:19:30;;;;;;;20.27;7.43;;;;;;;;;;5088324;28;20072;-79
2021/12/28 11:22:00;;;;;;;26.63;7.80;;;;;;;;;;5106825;28;20083;-78
2021/12/28 11:24:33;;;;;;;25.85;8.02;;;;;;;;;;5119503;27;20380;-78
2021/12/28 11:27:01;;;;;;;22.88;7.90;;;;;;;;;;5132171;27;20385;-78
2021/12/28 11:29:32;;;;;;;21.33;7.68;;;;;;;;;;5133777;27;20369;-80
2021/12/28 11:31:59;;;;;;;;;;;;;;;;;;5133952;27;20038;-79
2021/12/28 11:34:29;;;;;;;19.48;7.53;;;;;;;;;;5133686;27;19916;-79
2021/12/28 11:37:00;;;;;;;21.17;7.20;;;;;;;;;;5132521;27;20035;-80
2021/12/28 11:39:27;;;;;;;21.83;8.18;;;;;;;;;;5132766;27;20039;-80
2021/12/28 11:41:54;;;;;;;26.67;8.10;;;;;;;;;;5133802;27;20082;-78
2021/12/28 11:44:22;;;;;;;19.60;7.82;;;;;;;;;;5133560;27;20068;-79
2021/12/28 11:46:48;;;;;;;21.10;8.10;;;;;;;;;;5115344;27;20078;-79
2021/12/28 11:49:15;;;;;;;20.77;8.98;;;;;;;;;;5133438;27;20043;-79
2021/12/28 11:51:42;;;;;;;25.17;9.05;;;;;;;;;;5139194;27;20059;-78
2021/12/28 11:54:10;;;;;;;26.05;9.52;;;;;;;;;;5132688;27;20181;-78
2021/12/28 11:56:38;;;;;;;25.73;9.23;;;;;;;;;;5151822;27;20035;-83
2021/12/28 11:59:07;;;;;;;27.05;10.32;;;;;;;;;;5080159;28;20116;-80
2021/12/28 12:01:38;;;;;;;26.58;10.10;;;;;;;;;;5094760;28;20058;-79
2021/12/28 12:04:05;;;;;;;25.63;9.73;;;;;;;;;;5102610;27;20364;-79
2021/12/28 12:06:49;;;;;;;25.83;10.45;;;;;;;;;;5151265;27;20039;-80
2021/12/28 12:09:15;;;;;;;32.17;10.57;;;;;;;;;;5133226;28;20051;-80
2021/12/28 12:12:00;;;;;;;26.90;10.75;;;;;;;;;;5135860;27;20059;-79
2021/12/28 12:14:46;;;;;;;29.17;11.20;;;;;;;;;;5153758;27;20038;-80
2021/12/28 12:17:31;;;;;;;29.25;11.10;;;;;;;;;;5133401;27;20055;-78
2021/12/28 12:20:01;;;;;;;23.67;11.68;;;;;;;;;;5153796;27;20103;-79
2021/12/28 12:22:30;;;;;;;39.22;19.38;;;;;;;;;;5153139;27;20046;-79
2021/12/28 12:24:57;;;;;;;22.08;11.57;;;;;;;;;;5153894;27;20074;-82
2021/12/28 12:27:41;;;;;;;27.52;12.40;;;;;;;;;;5146938;27;20039;-79
2021/12/28 12:30:28;;;;;;;31.05;14.70;;;;;;;;;;5115200;28;20047;-78
2021/12/28 12:33:06;;;;;;;31.45;14.07;;;;;;;;;;5080460;28;20100;-79
2021/12/28 12:35:38;;;;;;;24.45;13.15;;;;;;;;;;5112220;28;20051;-80
2021/12/28 12:38:25;;;;;;;26.92;13.77;;;;;;;;;;5102847;27;20046;-80
2021/12/28 12:40:59;;;;;;;27.42;13.77;;;;;;;;;;5121818;27;20137;-80
2021/12/28 12:43:46;;;;;;;29.60;14.38;;;;;;;;;;5125642;27;20232;-81
2021/12/28 12:46:12;;;;;;;25.65;14.15;;;;;;;;;;5118510;27;20035;-79
2021/12/28 12:48:39;;;;;;;27.55;14.13;;;;;;;;;;5152236;27;20057;-80
2021/12/28 12:51:24;;;;;;;30.00;14.20;;;;;;;;;;5138746;27;20042;-80
2021/12/28 12:53:59;;;;;;;25.42;14.52;;;;;;;;;;5121056;27;20039;-80
2021/12/28 12:56:27;;;;;;;28.20;14.85;;;;;;;;;;5139155;27;20053;-80
2021/12/28 12:58:55;;;;;;;29.40;14.63;;;;;;;;;;5138605;27;20047;-80
2021/12/28 13:01:27;;;;;;;35.80;16.50;;;;;;;;;;5138160;27;20507;-80
2021/12/28 13:03:54;;;;;;;28.48;16.58;;;;;;;;;;5138691;27;20548;-80
2021/12/28 13:06:39;;;;;;;29.55;16.10;;;;;;;;;;5138905;27;20038;-81
2021/12/28 13:09:05;;;;;;;25.60;14.55;;;;;;;;;;5157340;27;20121;-81
2021/12/28 13:11:32;;;;;;;32.78;16.27;;;;;;;;;;5156796;27;20082;-80
2021/12/28 13:13:58;;;;;;;26.13;15.70;;;;;;;;;;5157070;27;20117;-80
2021/12/28 13:16:24;;;;;;;34.88;17.08;;;;;;;;;;5157004;27;20424;-81
2021/12/28 13:18:50;;;;;;;29.60;15.98;;;;;;;;;;5138315;27;20138;-81
2021/12/28 13:21:21;;;;;;;28.50;15.88;;;;;;;;;;5137948;27;20130;-81
2021/12/28 13:24:06;;;;;;;27.35;16.27;;;;;;;;;;5156981;27;20042;-81
2021/12/28 13:26:49;;;;;;;27.25;15.88;;;;;;;;;;5138508;27;20085;-81
2021/12/28 13:29:26;;;;;;;31.95;17.08;;;;;;;;;;5121054;27;20034;-81
2021/12/28 13:31:53;;;;;;;27.52;17.02;;;;;;;;;;5137917;27;20042;-80
2021/12/28 13:34:19;;;;;;;32.22;17.77;;;;;;;;;;5138095;27;20171;-81
2021/12/28 13:36:52;;;;;;;32.00;18.27;;;;;;;;;;5121198;27;20051;-80
2021/12/28 13:39:18;;;;;;;31.38;18.50;;;;;;;;;;5156439;27;20390;-80
2021/12/28 13:41:48;;;;;;;32.03;18.67;;;;;;;;;;5137902;27;20146;-81
2021/12/28 13:44:14;;;;;;;35.60;19.10;;;;;;;;;;5137713;27;20042;-80
2021/12/28 13:46:41;;;;;;;37.67;20.25;;;;;;;;;;5138056;27;20038;-81
2021/12/28 13:49:07;;;;;;;37.53;21.15;;;;;;;;;;5137661;27;20456;-81
2021/12/28 13:51:33;;;;;;;41.30;21.67;;;;;;;;;;5120348;27;20528;-82
2021/12/28 13:54:05;;;;;;;35.40;20.48;;;;;;;;;;5137733;27;20086;-81
2021/12/28 13:56:33;;;;;;;36.40;22.67;;;;;;;;;;5137531;27;20050;-81
2021/12/28 13:59:00;;;;;;;29.92;20.05;;;;;;;;;;5156062;27;20399;-80
2021/12/28 14:01:31;;;;;;;38.40;22.20;;;;;;;;;;5137342;27;20050;-81
2021/12/28 14:03:57;;;;;;;40.60;22.25;;;;;;;;;;5156161;27;20049;-81
2021/12/28 14:06:23;;;;;;;39.83;22.17;;;;;;;;;;5137648;27;20099;-81
2021/12/28 14:08:49;;;;;;;38.85;23.00;;;;;;;;;;5137537;27;20047;-81
2021/12/28 14:11:29;;;;;;;37.53;22.40;;;;;;;;;;5137440;27;20070;-80
2021/12/28 14:13:55;;;;;;;39.63;22.92;;;;;;;;;;5137468;27;20129;-81
2021/12/28 14:16:21;;;;;;;44.92;24.58;;;;;;;;;;5136798;27;20043;-81
2021/12/28 14:18:48;;;;;;;48.00;25.13;;;;;;;;;;5119215;27;20083;-81
2021/12/28 14:21:17;;;;;;;44.45;24.45;;;;;;;;;;5136835;27;20046;-81